createdAt,value
2019-03-31T00:00:49.842Z,71.37
2019-03-31T00:03:20.086Z,67.27
2019-03-31T00:05:48.821Z,66.73
2019-03-31T00:08:17.404Z,65.73
2019-03-31T00:10:45.793Z,58.80
2019-03-31T00:13:14.128Z,59.90
2019-03-31T00:15:42.533Z,54.93
2019-03-31T00:18:10.957Z,52.23
2019-03-31T00:20:39.361Z,55.63
2019-03-31T00:23:08.097Z,47.17
2019-03-31T00:25:36.541Z,53.07
2019-03-31T00:28:04.913Z,43.80
2019-03-31T00:30:33.882Z,40.53
2019-03-31T00:33:02.312Z,40.20
2019-03-31T00:35:30.646Z,39.00
2019-03-31T00:37:59.205Z,34.53
2019-03-31T00:40:29.010Z,33.60
2019-03-31T00:42:57.389Z,36.57
2019-03-31T00:45:26.056Z,38.97
2019-03-31T00:47:54.444Z,38.80
2019-03-31T00:50:22.834Z,35.83
2019-03-31T00:52:51.378Z,37.73
2019-03-31T00:55:19.907Z,36.10
2019-03-31T00:57:48.347Z,35.43
2019-03-31T01:00:38.341Z,33.97
2019-03-31T01:03:07.266Z,34.03
2019-03-31T01:05:36.356Z,33.07
2019-03-31T01:08:05.164Z,33.83
2019-03-31T01:10:35.276Z,33.30
2019-03-31T01:13:04.329Z,33.80
2019-03-31T01:15:33.213Z,33.83
2019-03-31T01:18:02.697Z,29.73
2019-03-31T01:20:31.048Z,27.30
2019-03-31T01:23:01.068Z,27.47
2019-03-31T01:25:29.622Z,26.87
2019-03-31T01:27:59.069Z,26.93
2019-03-31T01:30:27.488Z,32.77
2019-03-31T01:32:57.688Z,31.07
2019-03-31T01:35:26.127Z,30.93
2019-03-31T01:37:54.740Z,29.10
2019-03-31T01:40:23.138Z,28.07
2019-03-31T01:42:51.477Z,25.83
2019-03-31T01:45:20.199Z,25.63
2019-03-31T01:47:49.633Z,24.53
2019-03-31T01:50:19.446Z,26.47
2019-03-31T01:52:48.024Z,25.03
2019-03-31T01:55:18.180Z,21.83
2019-03-31T01:57:48.377Z,23.80
2019-03-31T02:00:31.468Z,20.93
2019-03-31T02:02:59.837Z,22.53
2019-03-31T02:05:29.324Z,21.07
2019-03-31T02:07:59.549Z,19.27
2019-03-31T02:10:28.269Z,22.30
2019-03-31T02:12:56.590Z,21.47
2019-03-31T02:15:25.144Z,22.33
2019-03-31T02:17:53.542Z,18.93
2019-03-31T02:20:21.969Z,20.77
2019-03-31T02:22:50.650Z,21.10
2019-03-31T02:25:20.805Z,19.53
2019-03-31T02:27:49.244Z,20.77
2019-03-31T02:30:17.729Z,17.30
2019-03-31T02:32:46.209Z,20.57
2019-03-31T02:35:14.698Z,19.93
2019-03-31T02:37:43.249Z,19.37
2019-03-31T02:40:11.758Z,19.97
2019-03-31T02:42:40.247Z,22.77
2019-03-31T02:45:09.343Z,17.93
2019-03-31T02:47:37.667Z,18.77
2019-03-31T02:50:06.440Z,17.27
2019-03-31T02:52:35.306Z,15.83
2019-03-31T02:55:04.212Z,14.90
2019-03-31T02:57:32.675Z,14.30
2019-03-31T03:00:02.606Z,20.57
2019-03-31T03:02:41.398Z,18.07
2019-03-31T03:05:17.822Z,18.47
2019-03-31T03:07:35.368Z,15.07
2019-03-31T03:10:05.275Z,16.33
2019-03-31T03:12:35.510Z,18.40
2019-03-31T03:15:05.642Z,15.90
2019-03-31T03:17:34.180Z,18.87
2019-03-31T03:20:02.587Z,14.83
2019-03-31T03:22:32.585Z,15.20
2019-03-31T03:25:00.972Z,15.53
2019-03-31T03:27:29.313Z,15.60
2019-03-31T03:29:58.044Z,18.53
2019-03-31T03:32:26.445Z,15.47
2019-03-31T03:34:56.621Z,14.83
2019-03-31T03:37:25.349Z,16.77
2019-03-31T03:39:53.683Z,16.03
2019-03-31T03:42:23.136Z,12.27
2019-03-31T03:44:51.705Z,11.63
2019-03-31T03:47:21.832Z,12.33
2019-03-31T03:49:50.245Z,11.87
2019-03-31T03:52:18.667Z,11.10
2019-03-31T03:54:48.553Z,10.23
2019-03-31T03:57:17.013Z,10.63
2019-03-31T03:59:45.592Z,11.90
2019-03-31T04:02:13.983Z,8.50
2019-03-31T04:04:42.385Z,9.03
2019-03-31T04:07:10.942Z,9.23
2019-03-31T04:09:39.340Z,9.00
2019-03-31T04:12:07.718Z,9.10
2019-03-31T04:14:36.916Z,9.13
2019-03-31T04:17:05.234Z,6.70
2019-03-31T04:19:34.120Z,9.60
2019-03-31T04:22:02.500Z,7.43
2019-03-31T04:24:33.099Z,8.07
2019-03-31T04:27:01.470Z,6.70
2019-03-31T04:29:29.935Z,7.83
2019-03-31T04:31:59.806Z,6.53
2019-03-31T04:34:28.146Z,8.70
2019-03-31T04:36:56.704Z,8.53
2019-03-31T04:39:25.189Z,9.17
2019-03-31T04:41:53.491Z,9.27
2019-03-31T04:44:22.241Z,9.43
2019-03-31T04:46:50.674Z,7.20
2019-03-31T04:49:19.231Z,6.83
2019-03-31T04:51:47.629Z,5.60
2019-03-31T04:54:17.521Z,9.63
2019-03-31T04:56:45.902Z,7.23
2019-03-31T04:59:15.594Z,9.67
2019-03-31T05:01:43.912Z,5.57
2019-03-31T05:04:12.828Z,8.67
2019-03-31T05:06:41.317Z,7.97
2019-03-31T05:09:09.674Z,10.43
2019-03-31T05:11:39.144Z,9.13
2019-03-31T05:14:08.852Z,9.57
2019-03-31T05:16:37.488Z,9.60
2019-03-31T05:19:06.938Z,7.67
2019-03-31T05:21:35.544Z,8.70
2019-03-31T05:24:04.305Z,11.83
2019-03-31T05:26:34.440Z,9.73
2019-03-31T05:29:03.049Z,8.10
2019-03-31T05:31:31.370Z,7.30
2019-03-31T05:34:00.937Z,8.00
2019-03-31T05:36:29.357Z,7.27
2019-03-31T05:38:58.833Z,9.23
2019-03-31T05:41:27.272Z,13.30
2019-03-31T05:44:05.536Z,10.83
2019-03-31T05:46:25.836Z,11.43
2019-03-31T05:48:54.410Z,11.87
2019-03-31T05:51:22.797Z,11.27
2019-03-31T05:53:52.336Z,15.63
2019-03-31T05:56:20.658Z,15.53
2019-03-31T05:58:50.996Z,14.27
2019-03-31T06:01:20.821Z,13.57
2019-03-31T06:03:49.204Z,14.40
2019-03-31T06:06:19.282Z,10.77
2019-03-31T06:08:47.709Z,14.13
2019-03-31T06:11:16.103Z,12.27
2019-03-31T06:13:44.670Z,15.03
2019-03-31T06:16:14.406Z,12.40
2019-03-31T06:18:43.176Z,10.70
2019-03-31T06:21:15.454Z,9.37
2019-03-31T06:23:43.792Z,13.90
2019-03-31T06:26:12.198Z,9.37
2019-03-31T06:28:40.801Z,13.27
2019-03-31T06:31:09.201Z,12.20
2019-03-31T06:33:37.593Z,10.50
2019-03-31T06:36:06.068Z,16.80
2019-03-31T06:38:35.600Z,14.60
2019-03-31T06:41:04.644Z,14.37
2019-03-31T06:43:33.299Z,11.07
2019-03-31T06:46:02.746Z,15.77
2019-03-31T06:48:31.185Z,12.77
2019-03-31T06:50:59.582Z,13.37
2019-03-31T06:53:27.938Z,12.87
2019-03-31T06:55:56.317Z,13.63
2019-03-31T06:58:26.027Z,13.63
2019-03-31T07:00:54.404Z,14.10
2019-03-31T07:03:24.529Z,9.97
2019-03-31T07:05:54.652Z,13.07
2019-03-31T07:08:23.037Z,12.23
2019-03-31T07:10:51.430Z,14.80
2019-03-31T07:13:19.921Z,13.53
2019-03-31T07:15:48.257Z,13.60
2019-03-31T07:18:16.776Z,12.23
2019-03-31T07:20:45.715Z,13.90
2019-03-31T07:23:14.036Z,13.73
2019-03-31T07:25:42.389Z,13.87
2019-03-31T07:28:11.019Z,15.37
2019-03-31T07:30:40.840Z,15.83
2019-03-31T07:33:09.232Z,17.57
2019-03-31T07:35:39.076Z,13.90
2019-03-31T07:38:07.656Z,13.37
2019-03-31T07:40:37.631Z,13.37
2019-03-31T07:43:07.618Z,13.30
2019-03-31T07:45:35.965Z,14.07
2019-03-31T07:48:08.000Z,17.63
2019-03-31T07:50:36.082Z,10.87
2019-03-31T07:53:04.809Z,12.03
2019-03-31T07:55:34.253Z,10.93
2019-03-31T07:58:02.632Z,11.70
2019-03-31T08:00:30.929Z,18.53
2019-03-31T08:03:00.396Z,14.03
2019-03-31T08:05:33.346Z,11.93
2019-03-31T08:08:00.839Z,13.17
2019-03-31T08:10:29.138Z,13.37
2019-03-31T08:12:57.603Z,13.13
2019-03-31T08:15:26.064Z,12.83
2019-03-31T08:17:54.450Z,16.13
2019-03-31T08:20:23.027Z,13.13
2019-03-31T08:22:51.929Z,10.20
2019-03-31T08:25:22.486Z,12.27
2019-03-31T08:27:51.140Z,8.10
2019-03-31T08:30:20.579Z,11.87
2019-03-31T08:32:48.916Z,9.70
2019-03-31T08:35:17.633Z,10.93
2019-03-31T08:37:45.992Z,8.00
2019-03-31T08:40:14.602Z,7.17
2019-03-31T08:42:43.041Z,9.07
2019-03-31T08:45:11.727Z,7.77
2019-03-31T08:47:41.189Z,10.97
2019-03-31T08:50:10.390Z,6.43
2019-03-31T08:52:38.740Z,7.07
2019-03-31T08:55:07.663Z,6.73
2019-03-31T08:57:36.260Z,6.47
2019-03-31T09:00:06.940Z,8.97
2019-03-31T09:02:38.757Z,7.17
2019-03-31T09:05:09.137Z,8.03
2019-03-31T09:07:37.577Z,9.10
2019-03-31T09:10:06.854Z,8.10
2019-03-31T09:12:35.464Z,9.80
2019-03-31T09:15:05.274Z,7.17
2019-03-31T09:17:33.626Z,8.23
2019-03-31T09:20:02.192Z,11.33
2019-03-31T09:22:32.437Z,6.77
2019-03-31T09:25:01.132Z,6.17
2019-03-31T09:27:31.489Z,6.87
2019-03-31T09:29:59.984Z,4.40
2019-03-31T09:32:28.485Z,9.57
2019-03-31T09:34:57.007Z,6.80
2019-03-31T09:37:25.462Z,4.23
2019-03-31T09:39:53.925Z,6.47
2019-03-31T09:42:22.498Z,7.27
2019-03-31T09:44:50.917Z,7.40
2019-03-31T09:47:19.230Z,9.20
2019-03-31T09:49:47.957Z,7.17
2019-03-31T09:52:17.786Z,9.30
2019-03-31T09:54:46.133Z,7.93
2019-03-31T09:57:15.712Z,7.30
2019-03-31T09:59:44.173Z,5.47
2019-03-31T10:02:12.547Z,7.20
2019-03-31T10:04:40.970Z,6.97
2019-03-31T10:07:09.316Z,7.57
2019-03-31T10:09:37.798Z,7.30
2019-03-31T10:12:06.468Z,7.20
2019-03-31T10:14:36.489Z,7.03
2019-03-31T10:17:05.030Z,8.67
2019-03-31T10:19:33.529Z,8.67
2019-03-31T10:22:02.057Z,8.87
2019-03-31T10:24:30.517Z,7.33
2019-03-31T10:26:59.381Z,6.73
2019-03-31T10:29:27.820Z,5.80
2019-03-31T10:31:56.326Z,7.30
2019-03-31T10:34:24.893Z,6.23
2019-03-31T10:36:53.288Z,8.77
2019-03-31T10:39:22.807Z,7.77
2019-03-31T10:41:51.473Z,9.40
2019-03-31T10:44:19.877Z,9.40
2019-03-31T10:46:49.337Z,7.17
2019-03-31T10:49:18.164Z,8.57
2019-03-31T10:51:46.685Z,8.67
2019-03-31T10:54:15.339Z,9.27
2019-03-31T10:56:43.871Z,10.13
2019-03-31T10:59:12.321Z,9.97
2019-03-31T11:01:40.673Z,8.70
2019-03-31T11:04:10.711Z,9.80
2019-03-31T11:06:40.832Z,9.90
2019-03-31T11:09:09.288Z,8.53
2019-03-31T11:11:37.899Z,9.77
2019-03-31T11:14:06.244Z,10.33
2019-03-31T11:16:36.598Z,8.70
2019-03-31T11:19:06.304Z,10.30
2019-03-31T11:21:40.556Z,9.27
2019-03-31T11:24:09.072Z,6.53
2019-03-31T11:26:37.927Z,7.77
2019-03-31T11:29:06.380Z,9.20
2019-03-31T11:31:36.241Z,7.03
2019-03-31T11:34:06.850Z,11.30
2019-03-31T11:36:36.662Z,11.63
2019-03-31T11:39:07.827Z,9.03
2019-03-31T11:41:36.309Z,8.53
2019-03-31T11:44:05.208Z,9.33
2019-03-31T11:46:35.354Z,8.93
2019-03-31T11:49:04.026Z,10.63
2019-03-31T11:51:32.474Z,7.97
2019-03-31T11:54:00.846Z,9.80
2019-03-31T11:56:30.424Z,7.80
2019-03-31T11:58:59.930Z,12.93
2019-03-31T12:01:28.225Z,7.40
2019-03-31T12:03:56.772Z,9.93
2019-03-31T12:06:25.157Z,7.77
2019-03-31T12:08:53.741Z,6.77
2019-03-31T12:11:22.525Z,8.20
2019-03-31T12:13:50.871Z,9.73
2019-03-31T12:16:19.227Z,11.03
2019-03-31T12:18:47.605Z,7.23
2019-03-31T12:21:15.937Z,9.83
2019-03-31T12:23:44.355Z,12.93
2019-03-31T12:26:12.753Z,9.23
2019-03-31T12:28:41.080Z,6.40
2019-03-31T12:31:09.953Z,12.10
2019-03-31T12:33:38.625Z,8.40
2019-03-31T12:36:08.527Z,9.63
2019-03-31T12:38:36.905Z,8.50
2019-03-31T12:41:06.748Z,8.77
2019-03-31T12:43:35.224Z,11.73
2019-03-31T12:46:03.541Z,9.37
2019-03-31T12:48:33.909Z,7.67
2019-03-31T12:51:02.261Z,6.47
2019-03-31T12:53:30.597Z,8.57
2019-03-31T12:56:01.099Z,12.10
2019-03-31T12:58:29.484Z,6.47
2019-03-31T13:00:57.972Z,7.60
2019-03-31T13:03:26.559Z,11.53
2019-03-31T13:05:56.327Z,7.53
2019-03-31T13:08:24.853Z,10.87
2019-03-31T13:10:53.327Z,5.70
2019-03-31T13:13:21.778Z,8.23
2019-03-31T13:15:50.328Z,10.63
2019-03-31T13:18:18.915Z,9.27
2019-03-31T13:20:47.260Z,7.70
2019-03-31T13:23:15.716Z,9.97
2019-03-31T13:25:44.388Z,9.53
2019-03-31T13:28:12.829Z,7.70
2019-03-31T13:30:42.320Z,6.93
2019-03-31T13:33:12.312Z,6.40
2019-03-31T13:35:40.691Z,8.70
2019-03-31T13:38:11.311Z,6.73
2019-03-31T13:40:40.865Z,6.60
2019-03-31T13:43:09.389Z,7.03
2019-03-31T13:45:37.749Z,7.97
2019-03-31T13:48:08.060Z,7.87
2019-03-31T13:50:36.492Z,7.20
2019-03-31T13:53:05.598Z,7.30
2019-03-31T13:55:34.173Z,10.10
2019-03-31T13:58:03.612Z,7.90
2019-03-31T14:00:40.845Z,6.70
2019-03-31T14:03:09.347Z,6.80
2019-03-31T14:05:37.732Z,7.20
2019-03-31T14:08:07.957Z,8.20
2019-03-31T14:10:36.636Z,8.23
2019-03-31T14:13:05.467Z,7.93
2019-03-31T14:15:33.791Z,8.90
2019-03-31T14:18:03.634Z,10.97
2019-03-31T14:20:33.445Z,6.30
2019-03-31T14:23:01.790Z,6.87
2019-03-31T14:25:31.421Z,9.23
2019-03-31T14:28:00.841Z,11.50
2019-03-31T14:30:30.289Z,7.97
2019-03-31T14:32:58.956Z,8.37
2019-03-31T14:35:27.616Z,6.13
2019-03-31T14:37:55.954Z,8.83
2019-03-31T14:40:24.377Z,6.63
2019-03-31T14:42:54.020Z,8.53
2019-03-31T14:45:31.925Z,8.37
2019-03-31T14:48:00.837Z,6.63
2019-03-31T14:50:32.900Z,9.00
2019-03-31T14:53:01.262Z,6.30
2019-03-31T14:55:29.863Z,8.00
2019-03-31T14:57:58.240Z,6.30
2019-03-31T15:00:26.564Z,6.90
2019-03-31T15:02:55.099Z,9.17
2019-03-31T15:05:23.516Z,6.70
2019-03-31T15:07:51.832Z,11.30
2019-03-31T15:10:22.086Z,8.37
2019-03-31T15:12:50.498Z,7.17
2019-03-31T15:15:18.976Z,8.20
2019-03-31T15:17:47.456Z,10.60
2019-03-31T15:20:16.760Z,7.70
2019-03-31T15:22:45.084Z,7.03
2019-03-31T15:25:13.722Z,12.17
2019-03-31T15:27:42.055Z,7.23
2019-03-31T15:30:10.669Z,7.63
2019-03-31T15:32:39.119Z,7.80
2019-03-31T15:35:09.256Z,7.40
2019-03-31T15:37:37.793Z,6.07
2019-03-31T15:40:06.148Z,6.60
2019-03-31T15:42:34.447Z,7.83
2019-03-31T15:45:02.723Z,6.03
2019-03-31T15:47:31.307Z,5.90
2019-03-31T15:49:59.599Z,6.70
2019-03-31T15:52:27.924Z,6.57
2019-03-31T15:54:56.290Z,6.67
2019-03-31T15:57:24.594Z,9.13
2019-03-31T15:59:52.996Z,8.83
2019-03-31T16:02:22.233Z,6.47
2019-03-31T16:04:52.300Z,7.97
2019-03-31T16:07:21.780Z,7.27
2019-03-31T16:09:51.992Z,5.80
2019-03-31T16:12:20.308Z,7.33
2019-03-31T16:14:48.342Z,7.43
2019-03-31T16:17:16.625Z,8.73
2019-03-31T16:19:45.741Z,6.17
2019-03-31T16:22:14.942Z,6.67
2019-03-31T16:24:46.431Z,7.40
2019-03-31T16:27:14.529Z,6.70
2019-03-31T16:29:42.785Z,6.60
2019-03-31T16:32:11.135Z,6.60
2019-03-31T16:34:40.623Z,8.33
2019-03-31T16:37:08.675Z,7.27
2019-03-31T16:39:38.339Z,7.40
2019-03-31T16:42:06.511Z,5.77
2019-03-31T16:44:34.685Z,5.60
2019-03-31T16:47:02.938Z,4.47
2019-03-31T16:49:31.187Z,8.27
2019-03-31T16:51:59.317Z,6.60
2019-03-31T16:54:27.700Z,6.60
2019-03-31T16:56:55.890Z,6.47
2019-03-31T16:59:24.073Z,4.77
2019-03-31T17:01:52.528Z,5.87
2019-03-31T17:04:20.795Z,6.73
2019-03-31T17:06:48.901Z,5.83
2019-03-31T17:09:18.164Z,9.23
2019-03-31T17:11:46.271Z,6.97
2019-03-31T17:14:14.493Z,5.40
2019-03-31T17:16:42.783Z,6.27
2019-03-31T17:19:10.881Z,7.73
2019-03-31T17:21:39.001Z,7.03
2019-03-31T17:24:07.379Z,5.27
2019-03-31T17:26:35.457Z,6.00
2019-03-31T17:29:03.816Z,5.67
2019-03-31T17:31:32.173Z,6.43
2019-03-31T17:34:00.270Z,8.27
2019-03-31T17:36:28.335Z,7.90
2019-03-31T17:38:57.951Z,6.17
2019-03-31T17:41:26.271Z,6.70
2019-03-31T17:43:54.449Z,5.90
2019-03-31T17:46:24.565Z,6.37
2019-03-31T17:48:52.723Z,6.87
2019-03-31T17:51:20.788Z,5.00
2019-03-31T17:53:48.912Z,7.87
2019-03-31T17:56:16.981Z,8.37
2019-03-31T17:58:45.154Z,8.27
2019-03-31T18:01:13.291Z,6.00
2019-03-31T18:03:41.473Z,8.17
2019-03-31T18:06:09.592Z,7.17
2019-03-31T18:08:37.970Z,7.03
2019-03-31T18:11:06.132Z,5.13
2019-03-31T18:13:34.224Z,6.93
2019-03-31T18:16:02.607Z,7.30
2019-03-31T18:18:32.057Z,7.53
2019-03-31T18:21:01.926Z,5.43
2019-03-31T18:23:30.313Z,5.77
2019-03-31T18:25:58.476Z,5.93
2019-03-31T18:28:26.532Z,5.53
2019-03-31T18:30:54.856Z,6.67
2019-03-31T18:33:23.031Z,7.33
2019-03-31T18:35:51.363Z,6.27
2019-03-31T18:38:19.889Z,5.97
2019-03-31T18:40:48.072Z,5.40
2019-03-31T18:43:17.610Z,7.20
2019-03-31T18:45:47.095Z,5.53
2019-03-31T18:48:16.187Z,5.07
2019-03-31T18:50:44.230Z,5.10
2019-03-31T18:53:15.209Z,9.57
2019-03-31T18:56:07.532Z,8.23
2019-03-31T18:58:49.345Z,8.90
2019-03-31T19:01:27.694Z,7.63
2019-03-31T19:04:27.120Z,6.27
2019-03-31T19:07:07.802Z,5.83
2019-03-31T19:09:55.588Z,9.50
2019-03-31T19:12:42.636Z,5.50
2019-03-31T19:15:29.316Z,4.53
2019-03-31T19:18:16.375Z,8.43
2019-03-31T19:21:16.037Z,8.07
2019-03-31T19:24:14.017Z,4.10
2019-03-31T19:27:07.325Z,7.27
2019-03-31T19:29:58.148Z,8.37
2019-03-31T19:32:34.476Z,5.20
2019-03-31T19:35:33.661Z,6.10
2019-03-31T19:38:13.848Z,5.13
2019-03-31T19:41:03.926Z,7.77
2019-03-31T19:43:41.719Z,7.63
2019-03-31T19:46:36.107Z,8.77
2019-03-31T19:49:23.199Z,7.23
2019-03-31T19:52:09.114Z,6.03
2019-03-31T19:54:55.376Z,8.07
2019-03-31T19:57:50.045Z,7.10
2019-03-31T20:00:40.294Z,7.77
2019-03-31T20:03:17.317Z,7.43
2019-03-31T20:06:07.809Z,6.57
2019-03-31T20:08:57.715Z,5.80
2019-03-31T20:11:37.316Z,7.57
2019-03-31T20:14:12.639Z,5.33
2019-03-31T20:17:02.907Z,9.50
2019-03-31T20:20:08.173Z,9.97
2019-03-31T20:22:47.827Z,8.80
2019-03-31T20:25:44.948Z,7.40
2019-03-31T20:28:32.300Z,9.40
2019-03-31T20:31:13.236Z,6.47
2019-03-31T20:33:49.578Z,5.40
2019-03-31T20:36:33.430Z,4.97
2019-03-31T20:39:26.691Z,8.23
2019-03-31T20:42:16.597Z,8.13
2019-03-31T20:44:46.274Z,6.70
2019-03-31T20:47:15.438Z,7.73
2019-03-31T20:49:43.721Z,9.60
2019-03-31T20:52:11.883Z,8.60
2019-03-31T20:54:40.074Z,9.40
2019-03-31T20:57:08.124Z,8.37
2019-03-31T20:59:36.458Z,7.37
2019-03-31T21:02:04.497Z,7.00
2019-03-31T21:04:32.560Z,7.70
2019-03-31T21:07:00.779Z,9.80
2019-03-31T21:09:28.877Z,7.43
2019-03-31T21:11:58.490Z,8.10
2019-03-31T21:14:26.601Z,9.30
2019-03-31T21:16:54.642Z,7.03
2019-03-31T21:19:24.556Z,8.70
2019-03-31T21:21:52.925Z,9.83
2019-03-31T21:24:20.988Z,6.53
2019-03-31T21:26:49.101Z,7.67
2019-03-31T21:29:19.321Z,9.27
2019-03-31T21:31:49.194Z,8.73
2019-03-31T21:34:17.323Z,8.43
2019-03-31T21:36:45.487Z,11.43
2019-03-31T21:39:13.654Z,7.47
2019-03-31T21:41:41.866Z,9.10
2019-03-31T21:44:09.985Z,8.73
2019-03-31T21:46:38.043Z,9.67
2019-03-31T21:49:06.279Z,8.23
2019-03-31T21:51:35.464Z,7.13
2019-03-31T21:54:03.598Z,9.13
2019-03-31T21:56:31.642Z,7.13
2019-03-31T21:59:01.753Z,8.93
2019-03-31T22:01:30.961Z,7.97
2019-03-31T22:04:00.009Z,8.93
2019-03-31T22:06:28.194Z,11.93
2019-03-31T22:08:56.327Z,11.60
2019-03-31T22:11:24.481Z,8.93
2019-03-31T22:13:52.879Z,9.23
2019-03-31T22:16:21.054Z,9.43
2019-03-31T22:18:50.917Z,8.57
2019-03-31T22:21:19.067Z,7.37
2019-03-31T22:23:57.362Z,6.27
2019-03-31T22:26:19.781Z,7.83
2019-03-31T22:28:49.439Z,9.23
2019-03-31T22:31:17.709Z,9.17
2019-03-31T22:33:45.881Z,10.57
2019-03-31T22:36:24.158Z,9.87
2019-03-31T22:38:53.737Z,11.27
2019-03-31T22:41:22.079Z,7.23
2019-03-31T22:43:50.667Z,9.13
2019-03-31T22:46:19.199Z,10.67
2019-03-31T22:48:47.438Z,7.97
2019-03-31T22:51:16.745Z,8.10
2019-03-31T22:53:45.284Z,10.13
2019-03-31T22:56:13.524Z,9.77
2019-03-31T22:58:43.409Z,7.97
2019-03-31T23:01:11.609Z,8.10
2019-03-31T23:03:39.780Z,8.13
2019-03-31T23:06:08.157Z,10.17
2019-03-31T23:08:36.413Z,9.93
2019-03-31T23:11:04.497Z,9.77
2019-03-31T23:13:34.092Z,13.60
2019-03-31T23:16:02.220Z,8.03
2019-03-31T23:18:30.411Z,12.60
2019-03-31T23:20:58.873Z,7.63
2019-03-31T23:23:27.953Z,6.87
2019-03-31T23:25:56.148Z,12.20
2019-03-31T23:28:25.733Z,10.93
2019-03-31T23:30:53.901Z,8.23
2019-03-31T23:33:22.018Z,7.57
2019-03-31T23:35:50.213Z,7.60
2019-03-31T23:38:19.745Z,8.17
2019-03-31T23:40:47.808Z,7.83
2019-03-31T23:43:17.941Z,6.53
2019-03-31T23:45:46.080Z,7.17
2019-03-31T23:48:14.357Z,6.77
2019-03-31T23:50:42.662Z,12.10
2019-03-31T23:53:12.521Z,8.00
2019-03-31T23:55:40.634Z,7.77
2019-03-31T23:58:09.155Z,7.97
